»·PEaware :: WAT540 KSEA-PAKT

WAT540 :: KSEA-PAKT

FLIGHT INFORMATION

Flight Status: Arrived
Operator:
Walker Air Transport
More flights by this operator :: More flights under this callsign
Pilot: Michael R. (33632)
Aircraft: PIPER PA-30 TWIN COMANCHE
(PA30)
More flights by this aircraft type
Origin: KSEA Seattle-Tacoma Intl
United States
Destination: PAKT Ketchikan Intl
United States
More flights between these airports :: More routes between these airports
Route:
File this flight plan on PilotEdge
Remarks:
Altitude:
(Current/Filed)
10,500ft
Speed:
(Current/Filed)
160kts
Departed: 19-Feb-21 01:40 AM
Arrived: 19-Feb-21 05:31 AM
Distance/Time
Traveled:
590nm/3:51
Distance/Time
To Go:
Arrived

Flight Plot

Page will automatically refresh every two minutes.

Flight plan parsing failed; only flown route is shown


Map Options




Map Legend


Flown Route
Filed Route
Departure Airport
Arrival Airport
Navaid (VOR, NDB)
Fix

Horizontal Profiles

Position Reports

Time Latitude Longitude Heading Altitude Ground
Speed
19-Feb-21 01:12 47.438414 -122.315220 359 347ft 0kts
19-Feb-21 01:13 47.438414 -122.315220 359 347ft 0kts
19-Feb-21 01:14 47.438414 -122.315220 359 347ft 0kts
19-Feb-21 01:15 47.438414 -122.315220 359 347ft 0kts
19-Feb-21 01:16 47.438414 -122.315220 359 347ft 0kts
19-Feb-21 01:17 47.438414 -122.315220 359 347ft 0kts
19-Feb-21 01:18 47.438414 -122.315220 359 347ft 0kts
19-Feb-21 01:19 47.438414 -122.315220 359 347ft 0kts
19-Feb-21 01:20 47.438414 -122.315220 359 347ft 0kts
19-Feb-21 01:21 47.438414 -122.315220 359 347ft 0kts
19-Feb-21 01:22 47.438414 -122.315220 359 347ft 0kts
19-Feb-21 01:23 47.438414 -122.315220 359 347ft 0kts
19-Feb-21 01:24 47.438414 -122.315220 359 347ft 0kts
19-Feb-21 01:25 47.438414 -122.315220 359 347ft 0kts
19-Feb-21 01:26 47.438414 -122.315220 359 347ft 0kts
19-Feb-21 01:27 47.438414 -122.315220 359 347ft 0kts
19-Feb-21 01:28 47.438414 -122.315220 359 347ft 0kts
19-Feb-21 01:29 47.438414 -122.315220 359 347ft 0kts
19-Feb-21 01:30 47.438414 -122.315220 359 347ft 0kts
19-Feb-21 01:31 47.438414 -122.315220 359 347ft 0kts
19-Feb-21 01:32 47.438414 -122.315220 359 347ft 0kts
19-Feb-21 01:33 47.438415 -122.315220 359 347ft 0kts
19-Feb-21 01:35 47.438415 -122.315220 359 347ft 0kts
19-Feb-21 01:36 47.438474 -122.315218 2 347ft 1kts
19-Feb-21 01:37 47.438116 -122.312951 103 350ft 10kts
19-Feb-21 01:38 47.438109 -122.312527 88 351ft 0kts
19-Feb-21 01:39 47.438101 -122.311817 92 352ft 10kts
19-Feb-21 01:40 47.441121 -122.311156 0 366ft 67kts
19-Feb-21 01:41 47.466864 -122.315118 319 1131ft 111kts
19-Feb-21 01:42 47.486142 -122.351697 316 2095ft 114kts
19-Feb-21 01:43 47.511002 -122.381892 324 3095ft 117kts
19-Feb-21 01:44 47.537523 -122.409137 326 4076ft 116kts
19-Feb-21 01:45 47.564405 -122.435488 327 5017ft 115kts
19-Feb-21 01:46 47.592036 -122.462284 327 5679ft 124kts
19-Feb-21 01:47 47.621341 -122.490631 327 6293ft 126kts
19-Feb-21 01:48 47.650713 -122.519032 327 6899ft 126kts
19-Feb-21 01:49 47.680066 -122.547442 327 7489ft 126kts
19-Feb-21 01:50 47.709579 -122.576041 327 8065ft 126kts
19-Feb-21 01:51 47.738938 -122.604529 327 8621ft 126kts
19-Feb-21 01:52 47.768439 -122.633194 327 9161ft 126kts
19-Feb-21 01:53 47.797915 -122.661874 326 9683ft 126kts
19-Feb-21 01:54 47.827346 -122.690549 326 10186ft 127kts
19-Feb-21 01:55 47.857887 -122.720356 326 10500ft 137kts
19-Feb-21 01:56 47.892119 -122.753825 326 10495ft 153kts
19-Feb-21 01:56 47.922235 -122.783303 326 10494ft 156kts
19-Feb-21 01:58 47.964747 -122.824973 326 10493ft 157kts
19-Feb-21 01:59 48.001284 -122.860849 326 10493ft 157kts
19-Feb-21 02:00 48.037770 -122.896737 326 10493ft 157kts
19-Feb-21 02:01 48.074378 -122.932808 326 10493ft 157kts
19-Feb-21 02:01 48.104802 -122.962832 326 10493ft 157kts
19-Feb-21 02:03 48.147402 -123.004945 326 10493ft 157kts
19-Feb-21 02:04 48.183923 -123.041116 326 10493ft 157kts
19-Feb-21 02:05 48.220486 -123.077392 326 10493ft 157kts
19-Feb-21 02:06 48.256932 -123.113615 326 10493ft 157kts
19-Feb-21 02:06 48.287355 -123.143899 326 10493ft 157kts
19-Feb-21 02:07 48.323921 -123.180357 326 10493ft 157kts
19-Feb-21 02:08 48.360355 -123.216748 326 10493ft 157kts
19-Feb-21 02:10 48.402954 -123.259376 326 10493ft 157kts
19-Feb-21 02:11 48.439464 -123.295980 326 10493ft 157kts
19-Feb-21 02:11 48.469717 -123.326360 326 10493ft 157kts
19-Feb-21 02:12 48.506152 -123.363007 326 10493ft 157kts
19-Feb-21 02:13 48.542593 -123.399725 326 10493ft 157kts
19-Feb-21 02:14 48.579126 -123.436599 326 10493ft 157kts
19-Feb-21 02:15 48.615447 -123.473326 326 10493ft 157kts
19-Feb-21 02:16 48.651847 -123.510197 326 10493ft 157kts
19-Feb-21 02:17 48.688331 -123.547218 326 10493ft 157kts
19-Feb-21 02:18 48.724789 -123.584278 326 10493ft 157kts
19-Feb-21 02:19 48.761138 -123.621294 326 10493ft 158kts
19-Feb-21 02:20 48.797510 -123.658399 325 10493ft 158kts
19-Feb-21 02:21 48.833852 -123.695536 325 10493ft 158kts
19-Feb-21 02:22 48.870216 -123.732764 325 10493ft 158kts
19-Feb-21 02:23 48.906554 -123.770034 325 10493ft 158kts
19-Feb-21 02:24 48.942892 -123.807368 325 10493ft 158kts
19-Feb-21 02:25 48.979316 -123.844858 325 10493ft 158kts
19-Feb-21 02:26 49.015660 -123.882333 325 10493ft 158kts
19-Feb-21 02:27 49.051967 -123.919837 325 10493ft 158kts
19-Feb-21 02:28 49.088290 -123.957426 325 10493ft 158kts
19-Feb-21 02:29 49.124559 -123.995026 325 10493ft 158kts
19-Feb-21 02:30 49.160935 -124.032804 325 10493ft 158kts
19-Feb-21 02:31 49.197132 -124.070465 325 10493ft 158kts
19-Feb-21 02:32 49.233487 -124.108359 325 10493ft 158kts
19-Feb-21 02:33 49.269788 -124.146265 325 10493ft 158kts
19-Feb-21 02:34 49.305977 -124.184122 325 10493ft 158kts
19-Feb-21 02:35 49.342309 -124.222199 325 10493ft 158kts
19-Feb-21 02:36 49.378479 -124.260173 325 10493ft 158kts
19-Feb-21 02:37 49.414775 -124.298350 325 10493ft 158kts
19-Feb-21 02:38 49.450995 -124.336517 325 10493ft 158kts
19-Feb-21 02:39 49.487160 -124.374695 325 10493ft 158kts
19-Feb-21 02:40 49.523420 -124.413044 325 10493ft 158kts
19-Feb-21 02:41 49.559601 -124.451379 325 10493ft 158kts
19-Feb-21 02:42 49.595718 -124.489716 325 10493ft 158kts
19-Feb-21 02:43 49.631895 -124.528189 325 10493ft 158kts
19-Feb-21 02:44 49.668107 -124.566768 325 10493ft 158kts
19-Feb-21 02:45 49.704245 -124.605340 325 10493ft 158kts
19-Feb-21 02:46 49.740412 -124.644014 325 10493ft 158kts
19-Feb-21 02:47 49.776525 -124.682700 325 10493ft 158kts
19-Feb-21 02:48 49.812681 -124.721506 325 10493ft 158kts
19-Feb-21 02:49 49.848768 -124.760307 325 10493ft 158kts
19-Feb-21 02:50 49.884821 -124.799144 325 10493ft 158kts
19-Feb-21 02:51 49.920919 -124.838105 325 10493ft 158kts
19-Feb-21 02:52 49.957030 -124.877151 325 10493ft 158kts
19-Feb-21 02:53 49.993121 -124.916248 325 10493ft 158kts
19-Feb-21 02:54 50.029101 -124.955298 325 10493ft 158kts
19-Feb-21 02:55 50.065150 -124.994495 325 10493ft 158kts
19-Feb-21 02:56 50.101080 -125.033635 325 10493ft 158kts
19-Feb-21 02:57 50.137250 -125.073112 325 10493ft 158kts
19-Feb-21 02:58 50.173267 -125.112494 325 10493ft 158kts
19-Feb-21 02:59 50.209257 -125.151922 325 10493ft 158kts
19-Feb-21 03:00 50.245246 -125.191422 325 10493ft 158kts
19-Feb-21 03:01 50.281273 -125.231039 325 10493ft 158kts
19-Feb-21 03:02 50.317270 -125.270697 325 10493ft 158kts
19-Feb-21 03:03 50.353258 -125.310420 325 10493ft 158kts
19-Feb-21 03:04 50.389114 -125.350073 325 10493ft 158kts
19-Feb-21 03:05 50.425099 -125.389945 325 10493ft 158kts
19-Feb-21 03:06 50.461040 -125.429842 325 10493ft 158kts
19-Feb-21 03:07 50.496936 -125.469766 325 10493ft 158kts
19-Feb-21 03:08 50.532828 -125.509760 325 10493ft 158kts
19-Feb-21 03:09 50.568719 -125.549831 325 10493ft 158kts
19-Feb-21 03:10 50.604622 -125.589992 325 10493ft 158kts
19-Feb-21 03:11 50.640539 -125.630244 325 10493ft 158kts
19-Feb-21 03:12 50.676417 -125.670529 324 10493ft 158kts
19-Feb-21 03:13 50.712280 -125.710874 324 10493ft 158kts
19-Feb-21 03:14 50.748169 -125.751328 324 10493ft 158kts
19-Feb-21 03:15 50.783889 -125.791668 324 10493ft 158kts
19-Feb-21 03:16 50.819795 -125.832296 324 10493ft 158kts
19-Feb-21 03:17 50.855505 -125.872780 324 10493ft 158kts
19-Feb-21 03:18 50.891400 -125.913553 324 10493ft 158kts
19-Feb-21 03:19 50.927137 -125.954224 324 10493ft 158kts
19-Feb-21 03:20 50.962984 -125.995100 324 10493ft 158kts
19-Feb-21 03:21 50.998678 -126.035880 324 10493ft 158kts
19-Feb-21 03:22 51.034430 -126.076807 324 10493ft 158kts
19-Feb-21 03:23 51.070118 -126.117740 324 10493ft 158kts
19-Feb-21 03:24 51.105818 -126.158766 324 10493ft 158kts
19-Feb-21 03:25 51.141513 -126.199864 324 10493ft 158kts
19-Feb-21 03:26 51.177314 -126.241166 324 10493ft 158kts
19-Feb-21 03:27 51.212983 -126.282396 324 10493ft 158kts
19-Feb-21 03:28 51.248669 -126.323729 324 10493ft 158kts
19-Feb-21 03:29 51.284351 -126.365136 324 10493ft 158kts
19-Feb-21 03:30 51.319946 -126.406524 324 10493ft 158kts
19-Feb-21 03:31 51.355620 -126.448085 324 10493ft 158kts
19-Feb-21 03:32 51.391264 -126.489692 324 10493ft 158kts
19-Feb-21 03:33 51.426898 -126.531371 324 10493ft 158kts
19-Feb-21 03:34 51.462485 -126.573077 324 10493ft 158kts
19-Feb-21 03:35 51.498073 -126.614867 324 10493ft 158kts
19-Feb-21 03:36 51.533700 -126.656785 323 10493ft 158kts
19-Feb-21 03:37 51.569231 -126.698674 323 10493ft 158kts
19-Feb-21 03:38 51.604748 -126.740627 323 10493ft 158kts
19-Feb-21 03:39 51.640375 -126.782796 323 10493ft 159kts
19-Feb-21 03:40 51.675816 -126.824829 323 10493ft 159kts
19-Feb-21 03:41 51.711403 -126.867117 323 10493ft 159kts
19-Feb-21 03:42 51.746859 -126.909336 323 10493ft 159kts
19-Feb-21 03:43 51.782435 -126.951781 323 10493ft 159kts
19-Feb-21 03:44 51.817855 -126.994126 323 10493ft 159kts
19-Feb-21 03:45 51.853372 -127.036672 323 10493ft 159kts
19-Feb-21 03:46 51.888771 -127.079159 323 10493ft 159kts
19-Feb-21 03:47 51.924187 -127.121756 323 10493ft 159kts
19-Feb-21 03:48 51.959670 -127.164518 323 10493ft 159kts
19-Feb-21 03:49 51.995127 -127.207334 323 10493ft 159kts
19-Feb-21 03:50 52.030542 -127.250190 323 10493ft 159kts
19-Feb-21 03:51 52.065925 -127.293089 323 10493ft 159kts
19-Feb-21 03:52 52.101215 -127.335965 323 10493ft 159kts
19-Feb-21 03:53 52.136643 -127.379091 323 10493ft 159kts
19-Feb-21 03:54 52.172036 -127.422264 323 10493ft 159kts
19-Feb-21 03:55 52.207368 -127.465454 323 10493ft 159kts
19-Feb-21 03:56 52.242694 -127.508722 323 10493ft 159kts
19-Feb-21 03:57 52.278049 -127.552116 323 10493ft 159kts
19-Feb-21 03:58 52.313289 -127.595456 323 10493ft 159kts
19-Feb-21 03:59 52.348558 -127.638923 323 10493ft 159kts
19-Feb-21 04:00 52.383918 -127.682588 322 10493ft 159kts
19-Feb-21 04:01 52.419125 -127.726156 322 10493ft 159kts
19-Feb-21 04:02 52.454327 -127.769806 322 10493ft 159kts
19-Feb-21 04:03 52.489641 -127.813672 322 10493ft 159kts
19-Feb-21 04:04 52.524880 -127.857566 322 10493ft 159kts
19-Feb-21 04:05 52.560101 -127.901478 322 10493ft 159kts
19-Feb-21 04:06 52.595288 -127.945506 322 10493ft 159kts
19-Feb-21 04:07 52.630454 -127.989561 322 10493ft 159kts
19-Feb-21 04:08 52.665599 -128.033684 322 10493ft 159kts
19-Feb-21 04:09 52.700810 -128.077983 322 10493ft 159kts
19-Feb-21 04:10 52.735916 -128.122239 322 10493ft 159kts
19-Feb-21 04:11 52.771019 -128.166587 322 10493ft 159kts
19-Feb-21 04:12 52.806138 -128.211045 322 10493ft 159kts
19-Feb-21 04:13 52.841269 -128.255614 322 10493ft 159kts
19-Feb-21 04:14 52.876318 -128.300170 322 10493ft 159kts
19-Feb-21 04:15 52.911321 -128.344760 322 10493ft 159kts
19-Feb-21 04:16 52.946440 -128.389595 322 10493ft 159kts
19-Feb-21 04:17 52.981392 -128.434307 322 10493ft 159kts
19-Feb-21 04:18 53.016444 -128.479244 322 10493ft 159kts
19-Feb-21 04:19 53.051505 -128.524286 322 10493ft 159kts
19-Feb-21 04:20 53.086493 -128.569330 322 10493ft 159kts
19-Feb-21 04:21 53.121495 -128.614485 322 10493ft 159kts
19-Feb-21 04:22 53.156328 -128.659517 321 10493ft 159kts
19-Feb-21 04:23 53.191409 -128.704968 321 10493ft 159kts
19-Feb-21 04:24 53.226259 -128.750214 321 10493ft 159kts
19-Feb-21 04:25 53.261138 -128.795597 321 10493ft 159kts
19-Feb-21 04:26 53.296136 -128.841229 321 10493ft 159kts
19-Feb-21 04:27 53.331003 -128.886786 321 10493ft 159kts
19-Feb-21 04:28 53.365846 -128.932412 321 10493ft 159kts
19-Feb-21 04:29 53.400688 -128.978135 321 10493ft 159kts
19-Feb-21 04:30 53.435608 -129.024055 321 10493ft 159kts
19-Feb-21 04:31 53.470528 -129.070074 321 10493ft 159kts
19-Feb-21 04:32 53.505301 -129.116003 321 10493ft 159kts
19-Feb-21 04:33 53.540125 -129.162093 321 10493ft 159kts
19-Feb-21 04:34 53.574846 -129.208146 321 10493ft 159kts
19-Feb-21 04:35 53.609596 -129.254338 321 10493ft 159kts
19-Feb-21 04:36 53.644373 -129.300664 321 10493ft 159kts
19-Feb-21 04:38 53.679108 -129.347038 321 10493ft 159kts
19-Feb-21 04:39 53.713830 -129.393492 321 10493ft 159kts
19-Feb-21 04:40 53.748633 -129.440157 321 10493ft 159kts
19-Feb-21 04:41 53.783295 -129.486736 321 10493ft 159kts
19-Feb-21 04:42 53.817862 -129.533286 321 10493ft 159kts
19-Feb-21 04:43 53.852625 -129.580202 321 10493ft 159kts
19-Feb-21 04:44 53.887100 -129.626833 321 10493ft 159kts
19-Feb-21 04:45 53.921871 -129.673966 321 10493ft 159kts
19-Feb-21 04:46 53.956541 -129.721064 321 10493ft 159kts
19-Feb-21 04:47 53.991059 -129.768057 321 10493ft 159kts
19-Feb-21 04:49 54.058027 -129.859523 321 10493ft 159kts
19-Feb-21 04:50 54.092514 -129.906781 321 10493ft 159kts
19-Feb-21 04:51 54.127108 -129.954292 321 10493ft 159kts
19-Feb-21 04:52 54.161666 -130.001855 321 10493ft 159kts
19-Feb-21 04:53 54.196182 -130.049465 321 10493ft 159kts
19-Feb-21 04:54 54.230611 -130.097065 321 10493ft 159kts
19-Feb-21 04:55 54.265034 -130.144757 321 10494ft 159kts
19-Feb-21 04:56 54.299489 -130.192600 321 10493ft 159kts
19-Feb-21 04:57 54.333876 -130.240454 321 10493ft 159kts
19-Feb-21 04:58 54.368305 -130.288476 321 10493ft 159kts
19-Feb-21 04:59 54.402714 -130.336578 321 10493ft 159kts
19-Feb-21 05:00 54.437119 -130.384779 321 10493ft 159kts
19-Feb-21 05:01 54.471416 -130.432936 321 10493ft 159kts
19-Feb-21 05:01 54.500126 -130.473333 321 10493ft 159kts
19-Feb-21 05:03 54.540196 -130.529843 321 10493ft 159kts
19-Feb-21 05:04 54.574462 -130.578282 321 10493ft 159kts
19-Feb-21 05:05 54.608695 -130.626781 321 10493ft 159kts
19-Feb-21 05:06 54.642971 -130.675452 320 10493ft 159kts
19-Feb-21 05:06 54.671543 -130.716108 320 10493ft 159kts
19-Feb-21 05:07 54.705759 -130.764900 320 10493ft 160kts
19-Feb-21 05:08 54.740019 -130.813863 320 10493ft 160kts
19-Feb-21 05:10 54.779927 -130.871036 320 10493ft 160kts
19-Feb-21 05:11 54.814108 -130.920124 320 10493ft 160kts
19-Feb-21 05:11 54.842659 -130.961213 320 10493ft 160kts
19-Feb-21 05:12 54.876877 -131.010563 320 10493ft 160kts
19-Feb-21 05:13 54.910930 -131.059790 320 10493ft 160kts
19-Feb-21 05:14 54.945075 -131.109256 320 10493ft 160kts
19-Feb-21 05:15 54.979534 -131.159300 320 10231ft 175kts
19-Feb-21 05:16 55.023366 -131.209585 329 9068ft 195kts
19-Feb-21 05:17 55.069194 -131.257830 329 7976ft 181kts
19-Feb-21 05:18 55.110382 -131.302012 326 6875ft 170kts
19-Feb-21 05:19 55.146223 -131.354055 319 5782ft 163kts
19-Feb-21 05:20 55.176391 -131.401546 317 4648ft 141kts
19-Feb-21 05:21 55.201291 -131.444413 313 3446ft 121kts
19-Feb-21 05:22 55.223440 -131.485151 313 2391ft 103kts
19-Feb-21 05:23 55.243111 -131.521175 314 1700ft 99kts
19-Feb-21 05:24 55.261286 -131.553738 318 1672ft 87kts
19-Feb-21 05:25 55.278786 -131.583734 318 1744ft 88kts
19-Feb-21 05:26 55.296960 -131.613216 316 1613ft 89kts
19-Feb-21 05:27 55.314393 -131.643415 317 1190ft 87kts
19-Feb-21 05:28 55.331614 -131.672578 315 573ft 85kts
19-Feb-21 05:29 55.347834 -131.700689 316 100ft 74kts
19-Feb-21 05:30 55.356676 -131.715786 316 89ft 31kts
19-Feb-21 05:31 55.361853 -131.722473 80 89ft 13kts
19-Feb-21 05:32 55.359336 -131.717405 131 88ft 14kts
19-Feb-21 05:33 55.356006 -131.711478 131 89ft 16kts
19-Feb-21 05:34 55.355662 -131.708782 78 89ft 0kts
19-Feb-21 05:35 55.355662 -131.708782 78 89ft 0kts

Navigation Log

Ident Type
Flight plan parsing failed, navigation log unavailable